Time;durP1;ratioP1;P1;durP2;ratioP2;P2;SDS_P1;SDS_P2;PMS_P1;PMS_P2;Temp;Humidity;BMP_temperature;BMP_pressure;BME280_temperature;BME280_humidity;BME280_pressure;Samples;Min_cycle;Max_cycle;Signal;HPM_P1;HPM_P2
2021/06/16 00:02:22;;;;;;;7.07;2.83;;;14.90;99.90;;;;;;5082584;28;20550;-72
2021/06/16 00:04:49;;;;;;;5.13;2.77;;;14.80;99.90;;;;;;5079664;28;20213;-72
2021/06/16 00:07:16;;;;;;;6.83;2.60;;;14.80;99.90;;;;;;5080036;28;20705;-72
2021/06/16 00:09:43;;;;;;;5.67;3.27;;;14.60;99.90;;;;;;5081464;28;20573;-72
2021/06/16 00:12:10;;;;;;;4.93;3.43;;;14.60;99.90;;;;;;5082458;28;20292;-71
2021/06/16 00:14:38;;;;;;;7.23;3.43;;;14.70;99.90;;;;;;5076400;28;20200;-72
2021/06/16 00:17:07;;;;;;;5.60;3.30;;;14.60;99.90;;;;;;5075232;28;20289;-72
2021/06/16 00:19:34;;;;;;;7.30;3.37;;;14.70;99.90;;;;;;5076703;28;20220;-72
2021/06/16 00:22:00;;;;;;;4.00;3.00;;;14.50;99.90;;;;;;5075938;28;20198;-71
2021/06/16 00:24:27;;;;;;;8.40;3.57;;;14.60;99.90;;;;;;5080593;28;20209;-71
2021/06/16 00:26:54;;;;;;;5.83;3.07;;;14.50;99.90;;;;;;5081933;28;20202;-71
2021/06/16 00:29:21;;;;;;;5.77;3.43;;;14.40;99.90;;;;;;5072052;28;20205;-72
2021/06/16 00:31:48;;;;;;;6.60;3.37;;;14.30;99.90;;;;;;5079023;28;20209;-72
2021/06/16 00:34:16;;;;;;;4.63;3.03;;;14.50;99.90;;;;;;5075816;28;20204;-72
2021/06/16 00:36:43;;;;;;;6.17;3.20;;;14.50;99.90;;;;;;5077057;28;20673;-72
2021/06/16 00:39:11;;;;;;;8.60;3.47;;;14.50;99.90;;;;;;5081882;28;20252;-71
2021/06/16 00:41:38;;;;;;;6.33;3.20;;;14.50;99.90;;;;;;5079036;28;20195;-71
2021/06/16 00:44:06;;;;;;;5.87;3.33;;;14.60;99.90;;;;;;5081680;28;20197;-72
2021/06/16 00:46:33;;;;;;;10.23;3.53;;;14.40;99.90;;;;;;5082459;28;20210;-72
2021/06/16 00:49:00;;;;;;;3.93;3.30;;;14.40;99.90;;;;;;5084380;28;20238;-72
2021/06/16 00:51:28;;;;;;;7.27;3.40;;;14.30;99.90;;;;;;5084330;28;20205;-72
2021/06/16 00:53:55;;;;;;;7.63;3.47;;;14.30;99.90;;;;;;5080371;28;20206;-71
2021/06/16 00:56:22;;;;;;;8.83;3.20;;;14.00;99.90;;;;;;5086443;28;20209;-71
2021/06/16 00:58:49;;;;;;;6.27;3.10;;;13.80;99.90;;;;;;5085221;28;20212;-72
2021/06/16 01:01:19;;;;;;;6.93;3.63;;;14.00;99.90;;;;;;5080337;28;20505;-71
2021/06/16 01:03:57;;;;;;;7.03;3.80;;;14.10;99.90;;;;;;5080684;28;20204;-71
2021/06/16 01:06:30;;;;;;;5.87;3.30;;;14.10;99.90;;;;;;5076092;28;20202;-72
2021/06/16 01:09:02;;;;;;;6.80;3.70;;;13.90;99.90;;;;;;5079710;28;20211;-71
2021/06/16 01:11:32;;;;;;;4.90;3.13;;;13.80;99.90;;;;;;5077967;28;20655;-72
2021/06/16 01:14:09;;;;;;;7.37;3.30;;;13.70;99.90;;;;;;5084819;28;20248;-71
2021/06/16 01:16:41;;;;;;;5.27;3.60;;;13.70;99.90;;;;;;5087479;28;20198;-72
2021/06/16 01:19:17;;;;;;;5.90;3.17;;;13.60;99.90;;;;;;5085050;28;20204;-71
2021/06/16 01:21:50;;;;;;;5.60;3.10;;;13.50;99.90;;;;;;5080124;28;20590;-74
2021/06/16 01:24:19;;;;;;;8.00;3.90;;;13.50;99.90;;;;;;5082078;28;20210;-74
2021/06/16 01:26:50;;;;;;;7.73;3.50;;;13.50;99.90;;;;;;5090536;28;20194;-74
2021/06/16 01:29:21;;;;;;;7.37;4.03;;;13.50;99.90;;;;;;5086657;28;20205;-74
2021/06/16 01:31:50;;;;;;;7.53;3.73;;;13.50;99.90;;;;;;5087769;28;20294;-74
2021/06/16 01:34:20;;;;;;;8.70;3.13;;;13.50;99.90;;;;;;5082741;28;20197;-75
2021/06/16 01:36:48;;;;;;;4.80;3.20;;;13.50;99.90;;;;;;5080430;28;20592;-74
2021/06/16 01:39:18;;;;;;;6.47;3.37;;;13.60;99.90;;;;;;5087560;28;20558;-74
2021/06/16 01:41:48;;;;;;;5.60;3.50;;;13.60;99.90;;;;;;5080151;28;20301;-74
2021/06/16 01:44:16;;;;;;;6.57;3.57;;;13.30;99.90;;;;;;5081363;28;20286;-74
2021/06/16 01:46:45;;;;;;;6.90;3.63;;;13.30;99.90;;;;;;5083006;28;20476;-74
2021/06/16 01:49:13;;;;;;;7.67;3.87;;;13.40;99.90;;;;;;5082211;28;20648;-74
2021/06/16 01:51:41;;;;;;;7.53;3.87;;;13.30;99.90;;;;;;5080138;28;20202;-74
2021/06/16 01:54:09;;;;;;;8.80;3.20;;;13.30;99.90;;;;;;5077024;28;20244;-74
2021/06/16 01:56:37;;;;;;;6.77;3.67;;;13.20;99.90;;;;;;5081621;28;20197;-75
2021/06/16 01:59:08;;;;;;;8.37;3.53;;;13.30;99.90;;;;;;5074706;28;20210;-75
2021/06/16 02:01:36;;;;;;;6.53;3.20;;;13.10;99.90;;;;;;5087221;28;20748;-75
2021/06/16 02:04:03;;;;;;;5.97;3.57;;;13.20;99.90;;;;;;5082891;28;20209;-75
2021/06/16 02:06:34;;;;;;;6.23;3.23;;;13.30;99.90;;;;;;5080643;28;20750;-75
2021/06/16 02:09:03;;;;;;;4.70;3.53;;;13.10;99.90;;;;;;5077534;28;20462;-75
2021/06/16 02:11:31;;;;;;;8.50;3.40;;;13.00;99.90;;;;;;5084209;28;20673;-75
2021/06/16 02:14:01;;;;;;;7.43;3.47;;;12.80;99.90;;;;;;5077271;28;20251;-75
2021/06/16 02:16:36;;;;;;;7.03;3.77;;;13.00;99.90;;;;;;5077098;28;20205;-74
2021/06/16 02:19:08;;;;;;;8.03;3.93;;;13.10;99.90;;;;;;5085212;28;20208;-75
2021/06/16 02:21:36;;;;;;;10.10;4.17;;;13.30;99.90;;;;;;5083725;28;20691;-74
2021/06/16 02:24:03;;;;;;;6.10;3.90;;;13.20;99.90;;;;;;5086228;28;20202;-75
2021/06/16 02:26:30;;;;;;;8.27;3.50;;;13.10;99.90;;;;;;5075808;28;20198;-74
2021/06/16 02:28:57;;;;;;;5.07;3.53;;;13.10;99.90;;;;;;5084964;28;20201;-74
2021/06/16 02:31:24;;;;;;;3.93;3.17;;;13.10;99.90;;;;;;5083061;28;20531;-74
2021/06/16 02:33:53;;;;;;;5.90;3.63;;;12.90;99.90;;;;;;5079227;28;20213;-74
2021/06/16 02:36:22;;;;;;;5.20;3.40;;;12.60;99.90;;;;;;5077386;28;20212;-75
2021/06/16 02:38:54;;;;;;;5.30;3.20;;;12.40;99.90;;;;;;5074809;28;20202;-75
2021/06/16 02:41:21;;;;;;;7.03;3.63;;;12.50;99.90;;;;;;5086249;28;20218;-75
2021/06/16 02:43:50;;;;;;;5.57;3.67;;;12.60;99.90;;;;;;5076513;28;20203;-75
2021/06/16 02:46:16;;;;;;;6.10;3.70;;;12.70;99.90;;;;;;5085713;28;20203;-74
2021/06/16 02:48:48;;;;;;;5.50;3.93;;;12.70;99.90;;;;;;5083076;28;20203;-75
2021/06/16 02:51:16;;;;;;;7.50;3.67;;;12.70;99.90;;;;;;5082009;28;20205;-75
2021/06/16 02:53:45;;;;;;;6.60;3.77;;;12.60;99.90;;;;;;5083571;28;20674;-74
2021/06/16 02:56:12;;;;;;;6.03;4.27;;;12.60;99.90;;;;;;5086254;28;20661;-75
2021/06/16 02:58:42;;;;;;;7.03;4.00;;;12.80;99.90;;;;;;5073879;28;20209;-75
2021/06/16 03:01:13;;;;;;;6.40;3.63;;;12.70;99.90;;;;;;5076263;28;20218;-74
2021/06/16 03:03:42;;;;;;;7.17;3.90;;;12.80;99.90;;;;;;5083575;28;20201;-74
2021/06/16 03:06:10;;;;;;;5.43;3.10;;;12.80;99.90;;;;;;5082247;28;20205;-74
2021/06/16 03:08:40;;;;;;;6.13;3.87;;;12.60;99.90;;;;;;5079475;28;20218;-74
2021/06/16 03:11:08;;;;;;;5.97;3.50;;;12.70;99.90;;;;;;5075220;28;20194;-75
2021/06/16 03:13:35;;;;;;;7.30;3.87;;;12.80;99.90;;;;;;5076734;28;20473;-74
2021/06/16 03:16:03;;;;;;;7.17;3.87;;;12.90;99.90;;;;;;5077984;28;20203;-74
2021/06/16 03:18:31;;;;;;;5.87;3.57;;;13.00;99.90;;;;;;5089103;28;20201;-74
2021/06/16 03:20:59;;;;;;;8.57;4.33;;;13.10;99.90;;;;;;5089004;28;20678;-75
2021/06/16 03:23:26;;;;;;;5.47;4.00;;;13.20;99.90;;;;;;5089573;28;20218;-74
2021/06/16 03:25:56;;;;;;;5.63;3.40;;;13.20;99.90;;;;;;5090422;28;20565;-74
2021/06/16 03:28:24;;;;;;;4.90;3.30;;;13.20;99.90;;;;;;5078546;28;20202;-74
2021/06/16 03:30:53;;;;;;;6.97;3.60;;;13.20;99.90;;;;;;5090368;28;20542;-75
2021/06/16 03:33:21;;;;;;;6.77;3.60;;;13.30;99.90;;;;;;5079872;28;20625;-74
2021/06/16 03:35:50;;;;;;;9.30;4.07;;;13.40;99.90;;;;;;5092080;28;20576;-74
2021/06/16 03:38:18;;;;;;;7.73;3.50;;;13.40;99.90;;;;;;5090802;28;20201;-75
2021/06/16 03:40:48;;;;;;;4.40;2.80;;;13.40;99.90;;;;;;5089608;28;20213;-74
2021/06/16 03:43:18;;;;;;;4.90;3.90;;;13.20;99.90;;;;;;5071035;28;20252;-74
2021/06/16 03:45:46;;;;;;;6.40;3.60;;;13.30;99.90;;;;;;5089930;28;20202;-75
2021/06/16 03:48:17;;;;;;;6.47;3.47;;;13.40;99.90;;;;;;5091498;28;20202;-75
2021/06/16 03:50:45;;;;;;;4.77;3.47;;;13.40;99.90;;;;;;5072001;28;20202;-74
2021/06/16 03:53:12;;;;;;;8.63;3.87;;;13.50;99.90;;;;;;5053319;28;20260;-74
2021/06/16 03:55:42;;;;;;;5.37;3.73;;;13.50;99.90;;;;;;5071992;28;20546;-75
2021/06/16 03:58:09;;;;;;;8.33;4.00;;;13.50;99.90;;;;;;5071407;28;20675;-75
2021/06/16 04:00:38;;;;;;;6.53;4.03;;;13.40;99.90;;;;;;5075264;28;20226;-77
2021/06/16 04:03:07;;;;;;;6.23;4.27;;;13.70;99.90;;;;;;5084096;28;20213;-77
2021/06/16 04:05:35;;;;;;;6.00;4.00;;;14.00;99.90;;;;;;5086244;28;20204;-77
2021/06/16 04:08:02;;;;;;;7.07;4.23;;;14.00;99.90;;;;;;5080710;28;20209;-77
2021/06/16 04:10:29;;;;;;;9.03;3.70;;;14.60;99.90;;;;;;5076478;28;20606;-77
2021/06/16 04:12:56;;;;;;;7.60;3.33;;;16.60;99.90;;;;;;5089730;28;20198;-77
2021/06/16 04:15:24;;;;;;;7.67;3.83;;;17.80;99.90;;;;;;5082385;28;20216;-77
2021/06/16 04:17:54;;;;;;;9.13;4.30;;;18.60;99.90;;;;;;5091050;28;20209;-75
2021/06/16 04:20:21;;;;;;;11.85;3.88;;;18.70;99.90;;;;;;5075922;28;20234;-75
2021/06/16 04:22:48;;;;;;;6.03;3.22;;;17.80;99.90;;;;;;5075126;28;20576;-75
2021/06/16 04:25:14;;;;;;;6.30;3.42;;;16.70;99.90;;;;;;5091470;28;20205;-75
2021/06/16 04:27:41;;;;;;;7.03;3.47;;;16.30;99.90;;;;;;5091964;28;20208;-71
2021/06/16 04:30:11;;;;;;;4.30;3.20;;;15.80;99.90;;;;;;5085738;28;20202;-71
2021/06/16 04:32:39;;;;;;;5.88;3.40;;;15.50;99.90;;;;;;5084748;28;20202;-71
2021/06/16 04:35:09;;;;;;;6.47;3.30;;;15.30;99.90;;;;;;5086950;28;20206;-72
2021/06/16 04:37:36;;;;;;;6.85;3.80;;;15.20;99.90;;;;;;5083941;28;20210;-71
2021/06/16 04:40:05;;;;;;;9.30;4.15;;;15.90;99.90;;;;;;5084118;28;20277;-72
2021/06/16 04:42:32;;;;;;;6.68;3.55;;;15.30;99.90;;;;;;5082086;28;20226;-69
2021/06/16 04:45:00;;;;;;;5.75;3.05;;;15.20;99.90;;;;;;5084190;28;20267;-69
2021/06/16 04:47:27;;;;;;;7.03;4.00;;;15.20;99.90;;;;;;5091353;28;20202;-69
2021/06/16 04:49:54;;;;;;;5.97;4.00;;;15.50;99.90;;;;;;5084397;28;20536;-75
2021/06/16 04:52:22;;;;;;;7.50;4.00;;;15.90;99.90;;;;;;5089297;28;20252;-71
2021/06/16 04:54:49;;;;;;;9.27;4.43;;;16.20;99.90;;;;;;5080325;28;20243;-69
2021/06/16 04:57:17;;;;;;;9.88;4.47;;;16.30;99.90;;;;;;5084374;28;20210;-69
2021/06/16 04:59:44;;;;;;;14.38;4.93;;;16.30;99.90;;;;;;5084383;28;20244;-69
2021/06/16 05:02:11;;;;;;;12.43;4.40;;;16.20;99.90;;;;;;5087633;28;20225;-69
2021/06/16 05:04:38;;;;;;;8.88;4.18;;;16.30;99.90;;;;;;5078816;28;20251;-69
2021/06/16 05:07:05;;;;;;;14.93;5.17;;;16.70;99.90;;;;;;5085295;28;20202;-69
2021/06/16 05:09:33;;;;;;;12.07;4.78;;;17.00;99.90;;;;;;5086306;28;20202;-69
2021/06/16 05:12:00;;;;;;;7.32;4.80;;;17.10;99.90;;;;;;5085212;28;20206;-69
2021/06/16 05:14:27;;;;;;;8.77;5.10;;;17.10;99.90;;;;;;5089468;28;20656;-69
2021/06/16 05:16:54;;;;;;;10.18;5.30;;;17.00;99.90;;;;;;5085565;28;20254;-69
2021/06/16 05:19:23;;;;;;;13.18;5.32;;;16.50;99.90;;;;;;5087809;28;20214;-69
2021/06/16 05:21:51;;;;;;;10.55;5.82;;;17.00;99.90;;;;;;5087069;28;20224;-69
2021/06/16 05:24:20;;;;;;;7.22;5.15;;;17.00;99.90;;;;;;5084604;28;20201;-69
2021/06/16 05:26:48;;;;;;;10.68;5.55;;;17.20;99.90;;;;;;5085807;28;20721;-69
2021/06/16 05:29:15;;;;;;;8.18;5.53;;;16.80;99.90;;;;;;5083225;28;20230;-69
2021/06/16 05:31:42;;;;;;;12.20;5.57;;;16.80;99.90;;;;;;5076586;28;20194;-69
2021/06/16 05:34:09;;;;;;;11.02;5.50;;;16.60;99.90;;;;;;5086439;28;20202;-69
2021/06/16 05:36:36;;;;;;;15.18;6.05;;;16.60;99.90;;;;;;5084435;28;20621;-69
2021/06/16 05:39:06;;;;;;;11.02;6.03;;;16.80;99.90;;;;;;5083266;28;20567;-69
2021/06/16 05:41:33;;;;;;;11.20;6.18;;;17.00;99.90;;;;;;5086917;28;20269;-69
2021/06/16 05:44:02;;;;;;;10.38;5.57;;;18.10;99.90;;;;;;5079669;28;20256;-69
2021/06/16 05:46:29;;;;;;;11.60;5.97;;;18.00;99.90;;;;;;5075710;28;20199;-69
2021/06/16 05:48:56;;;;;;;11.90;6.05;;;17.20;99.90;;;;;;5080151;28;20958;-69
2021/06/16 05:51:23;;;;;;;9.52;5.80;;;17.00;99.90;;;;;;5081644;28;20234;-69
2021/06/16 05:53:50;;;;;;;8.63;6.13;;;17.20;99.90;;;;;;5078884;28;20268;-69
2021/06/16 05:56:17;;;;;;;9.80;6.13;;;17.70;99.90;;;;;;5080442;28;20195;-69
2021/06/16 05:58:44;;;;;;;8.25;5.55;;;17.70;99.90;;;;;;5086534;28;20284;-69
2021/06/16 06:01:12;;;;;;;9.85;5.50;;;17.50;99.90;;;;;;5081462;28;20292;-69
2021/06/16 06:03:42;;;;;;;9.18;5.68;;;17.20;99.90;;;;;;5083736;28;20558;-69
2021/06/16 06:06:09;;;;;;;9.00;5.68;;;17.30;99.90;;;;;;5073652;28;20214;-70
2021/06/16 06:08:36;;;;;;;12.80;6.38;;;17.30;99.90;;;;;;5081626;28;20222;-69
2021/06/16 06:11:03;;;;;;;11.50;5.47;;;18.00;99.90;;;;;;5078043;28;20197;-69
2021/06/16 06:13:30;;;;;;;11.57;6.75;;;17.90;99.90;;;;;;5082611;28;20251;-69
2021/06/16 06:15:57;;;;;;;9.07;6.03;;;17.80;99.90;;;;;;5080873;28;20202;-69
2021/06/16 06:18:25;;;;;;;11.68;6.00;;;17.40;99.90;;;;;;5083554;28;20202;-69
2021/06/16 06:20:52;;;;;;;13.43;5.90;;;17.60;99.90;;;;;;5076256;28;20610;-69
2021/06/16 06:23:19;;;;;;;9.75;6.25;;;18.00;99.90;;;;;;5084500;28;20337;-69
2021/06/16 06:25:46;;;;;;;12.77;5.30;;;18.00;99.90;;;;;;5086921;28;20707;-69
2021/06/16 06:28:13;;;;;;;8.57;6.18;;;18.10;99.90;;;;;;5077465;28;20241;-69
2021/06/16 06:30:40;;;;;;;11.70;6.30;;;17.80;99.90;;;;;;5077703;28;20198;-69
2021/06/16 06:33:07;;;;;;;9.75;6.07;;;18.10;99.90;;;;;;5078330;28;20202;-69
2021/06/16 06:35:35;;;;;;;10.95;6.13;;;18.20;99.90;;;;;;5079865;28;20688;-69
2021/06/16 06:38:03;;;;;;;11.90;6.03;;;18.30;99.90;;;;;;5085622;28;20201;-69
2021/06/16 06:40:30;;;;;;;13.05;6.72;;;18.30;99.90;;;;;;5080702;28;20634;-69
2021/06/16 06:42:57;;;;;;;11.13;6.30;;;18.40;99.90;;;;;;5080433;28;20244;-69
2021/06/16 06:45:24;;;;;;;9.95;6.28;;;18.10;99.90;;;;;;5088421;28;20282;-69
2021/06/16 06:47:51;;;;;;;9.77;6.18;;;18.30;99.90;;;;;;5086267;28;20635;-69
2021/06/16 06:50:18;;;;;;;9.05;6.03;;;18.10;99.90;;;;;;5079965;28;20295;-69
2021/06/16 06:52:48;;;;;;;12.00;7.07;;;18.40;99.90;;;;;;5080184;28;20255;-69
2021/06/16 06:55:16;;;;;;;11.35;6.43;;;18.40;99.90;;;;;;5083044;28;20270;-69
2021/06/16 06:57:43;;;;;;;8.65;5.70;;;18.60;99.90;;;;;;5080577;28;20594;-69
2021/06/16 07:00:12;;;;;;;13.32;6.68;;;18.60;99.90;;;;;;5084463;28;20258;-70
2021/06/16 07:02:39;;;;;;;10.23;6.32;;;18.30;99.90;;;;;;5080602;28;20230;-69
2021/06/16 07:05:08;;;;;;;13.98;6.25;;;18.50;99.90;;;;;;5077108;28;20666;-69
2021/06/16 07:07:35;;;;;;;10.38;5.70;;;18.70;99.90;;;;;;5080035;28;20686;-69
2021/06/16 07:10:03;;;;;;;12.68;6.30;;;18.80;99.90;;;;;;5081477;28;20260;-69
2021/06/16 07:12:30;;;;;;;9.93;5.70;;;18.60;99.90;;;;;;5080150;28;20247;-69
2021/06/16 07:14:57;;;;;;;9.00;6.13;;;18.90;99.90;;;;;;5086253;28;20202;-69
2021/06/16 07:17:24;;;;;;;11.48;6.32;;;18.90;99.90;;;;;;5081098;28;20210;-69
2021/06/16 07:19:52;;;;;;;9.80;6.03;;;19.00;99.90;;;;;;5078073;28;20607;-69
2021/06/16 07:22:19;;;;;;;13.43;6.07;;;19.10;99.90;;;;;;5078718;28;20261;-69
2021/06/16 07:24:46;;;;;;;10.98;6.07;;;19.10;99.90;;;;;;5077708;28;20256;-69
2021/06/16 07:27:15;;;;;;;14.25;6.03;;;19.10;99.90;;;;;;5068634;28;20270;-70
2021/06/16 07:29:42;;;;;;;9.40;5.32;;;19.20;99.90;;;;;;5067787;28;20198;-69
2021/06/16 07:32:09;;;;;;;9.98;5.40;;;19.40;99.90;;;;;;5075994;28;20198;-69
2021/06/16 07:34:36;;;;;;;6.55;5.07;;;19.60;99.90;;;;;;5070771;28;20210;-69
2021/06/16 07:37:04;;;;;;;9.65;5.35;;;19.60;99.90;;;;;;5073860;28;20206;-69
2021/06/16 07:39:31;;;;;;;9.52;4.72;;;19.90;99.90;;;;;;5073791;28;20742;-72
2021/06/16 07:41:58;;;;;;;8.30;4.72;;;19.80;99.90;;;;;;5076632;28;20278;-72
2021/06/16 07:44:27;;;;;;;9.38;4.72;;;19.80;99.90;;;;;;5080191;28;20213;-72
2021/06/16 07:46:54;;;;;;;7.82;4.85;;;19.80;99.90;;;;;;5074272;28;20251;-72
2021/06/16 07:49:21;;;;;;;10.05;4.95;;;20.00;99.90;;;;;;5076389;28;20275;-72
2021/06/16 07:51:48;;;;;;;8.05;4.53;;;20.00;99.90;;;;;;5082187;28;20609;-72
2021/06/16 07:54:15;;;;;;;10.20;5.15;;;20.20;99.90;;;;;;5098966;22;20629;-73
2021/06/16 07:56:43;;;;;;;8.15;5.00;;;20.10;99.90;;;;;;5069480;28;20304;-73
2021/06/16 07:59:09;;;;;;;9.02;4.97;;;20.30;99.90;;;;;;5067240;28;20202;-73
2021/06/16 08:01:38;;;;;;;8.07;4.60;;;20.40;99.90;;;;;;5061066;28;20224;-74
2021/06/16 08:04:05;;;;;;;7.60;4.45;;;20.40;99.90;;;;;;5065552;28;20723;-74
2021/06/16 08:06:32;;;;;;;9.18;4.97;;;20.40;99.90;;;;;;5067549;28;20207;-73
2021/06/16 08:08:59;;;;;;;7.25;4.40;;;20.50;99.90;;;;;;5062117;28;20464;-72
2021/06/16 08:11:26;;;;;;;8.85;4.93;;;20.40;99.90;;;;;;5053730;28;20210;-72
2021/06/16 08:13:53;;;;;;;5.95;4.10;;;20.70;99.90;;;;;;5064848;28;20678;-72
2021/06/16 08:16:20;;;;;;;6.65;4.57;;;20.80;99.90;;;;;;5056717;28;20210;-73
2021/06/16 08:18:50;;;;;;;11.20;5.28;;;20.90;99.90;;;;;;5054489;28;20210;-74
2021/06/16 08:21:17;;;;;;;8.88;4.72;;;21.00;99.90;;;;;;5055141;28;20225;-75
2021/06/16 08:23:46;;;;;;;11.13;4.80;;;20.90;99.90;;;;;;5059806;28;20210;-74
2021/06/16 08:26:13;;;;;;;8.02;4.72;;;21.00;99.90;;;;;;5053569;28;20203;-74
2021/06/16 08:28:40;;;;;;;7.80;4.25;;;21.00;99.90;;;;;;5061602;28;20213;-74
2021/06/16 08:31:07;;;;;;;6.30;4.10;;;21.00;99.90;;;;;;5055145;28;20582;-74
2021/06/16 08:33:36;;;;;;;7.43;4.30;;;21.10;99.90;;;;;;5058895;28;20206;-74
2021/06/16 08:36:04;;;;;;;10.38;4.45;;;21.20;99.90;;;;;;5058396;28;20577;-74
2021/06/16 08:38:32;;;;;;;7.80;4.10;;;21.30;99.90;;;;;;5057113;28;20206;-74
2021/06/16 08:41:03;;;;;;;5.75;4.15;;;21.30;99.90;;;;;;5060188;28;20214;-74
2021/06/16 08:43:38;;;;;;;8.52;4.32;;;21.40;99.90;;;;;;5058218;28;20230;-74
2021/06/16 08:46:07;;;;;;;8.75;4.10;;;21.70;99.90;;;;;;5055554;28;20202;-76
2021/06/16 08:48:35;;;;;;;8.48;3.90;;;21.70;99.90;;;;;;5058183;28;20687;-75
2021/06/16 08:51:04;;;;;;;8.48;3.60;;;21.90;99.90;;;;;;5053039;28;20265;-72
2021/06/16 08:53:31;;;;;;;7.88;4.10;;;22.30;99.90;;;;;;5053208;28;20218;-72
2021/06/16 08:55:58;;;;;;;7.38;3.78;;;22.60;99.90;;;;;;5056265;28;20214;-71
2021/06/16 08:58:25;;;;;;;4.93;3.42;;;22.90;99.90;;;;;;5055092;28;20570;-71
2021/06/16 09:00:52;;;;;;;5.60;4.13;;;22.90;99.90;;;;;;5052953;28;20777;-70
2021/06/16 09:03:19;;;;;;;7.50;4.43;;;23.00;99.90;;;;;;5057554;28;20218;-71
2021/06/16 09:05:50;;;;;;;7.53;3.72;;;23.10;99.90;;;;;;5060584;28;20551;-70
2021/06/16 09:08:20;;;;;;;10.93;4.25;;;23.60;99.90;;;;;;5055460;28;20202;-71
2021/06/16 09:10:49;;;;;;;7.65;4.43;;;23.70;99.90;;;;;;5055776;28;20233;-70
2021/06/16 09:13:36;;;;;;;12.40;4.82;;;24.00;99.90;;;;;;5057742;28;20675;-70
2021/06/16 09:16:27;;;;;;;9.48;4.85;;;23.80;99.90;;;;;;5059210;28;20702;-71
2021/06/16 09:18:55;;;;;;;9.68;4.95;;;23.90;99.90;;;;;;5061890;28;20206;-71
2021/06/16 09:21:39;;;;;;;10.80;5.28;;;24.00;99.90;;;;;;5050638;28;20206;-70
2021/06/16 09:24:09;;;;;;;13.52;6.00;;;24.30;99.90;;;;;;5060341;28;20202;-71
2021/06/16 09:26:37;;;;;;;10.35;5.15;;;24.40;99.90;;;;;;5058093;28;20580;-71
2021/06/16 09:29:05;;;;;;;9.30;5.05;;;24.60;99.90;;;;;;5056866;28;20665;-71
2021/06/16 09:31:36;;;;;;;10.07;5.22;;;24.60;99.90;;;;;;5050332;28;20211;-71
2021/06/16 09:34:08;;;;;;;9.77;5.13;;;24.50;99.90;;;;;;5055968;28;20302;-70
2021/06/16 09:36:47;;;;;;;9.82;5.03;;;24.40;99.90;;;;;;5061128;28;20464;-71
2021/06/16 09:39:18;;;;;;;10.68;5.50;;;24.80;99.90;;;;;;5057021;28;20206;-70
2021/06/16 09:42:01;;;;;;;12.90;5.45;;;24.90;99.90;;;;;;5051816;28;20203;-70
2021/06/16 09:44:45;;;;;;;13.65;6.13;;;24.80;99.90;;;;;;5049315;28;20260;-69
2021/06/16 09:47:15;;;;;;;12.35;5.72;;;24.80;99.90;;;;;;5059804;28;20206;-69
2021/06/16 09:49:54;;;;;;;10.18;5.40;;;24.60;99.90;;;;;;5056844;28;20210;-70
2021/06/16 09:52:32;;;;;;;12.98;5.93;;;25.00;99.90;;;;;;5050687;28;20207;-69
2021/06/16 09:55:01;;;;;;;10.55;6.10;;;25.10;99.90;;;;;;5052922;28;20598;-70
2021/06/16 09:57:28;;;;;;;12.48;5.88;;;25.30;99.90;;;;;;5055094;28;20294;-70
2021/06/16 10:00:01;;;;;;;11.65;5.45;;;25.60;99.90;;;;;;5052701;28;20198;-70
2021/06/16 10:02:29;;;;;;;9.10;5.88;;;26.00;99.90;;;;;;5058150;28;20254;-70
2021/06/16 10:04:57;;;;;;;10.68;6.00;;;25.40;99.90;;;;;;5062014;28;20686;-71
2021/06/16 10:07:25;;;;;;;11.65;5.95;;;25.80;99.90;;;;;;5059601;28;20210;-70
2021/06/16 10:09:55;;;;;;;12.20;6.07;;;26.20;99.90;;;;;;5063471;28;20568;-71
2021/06/16 10:12:26;;;;;;;11.02;6.40;;;26.00;99.90;;;;;;5063247;28;20220;-70
2021/06/16 10:14:53;;;;;;;10.75;6.47;;;25.90;99.90;;;;;;5067122;28;20664;-70
2021/06/16 10:17:21;;;;;;;8.40;6.25;;;26.10;99.90;;;;;;5058834;28;20576;-70
2021/06/16 10:19:49;;;;;;;9.90;6.28;;;26.50;99.90;;;;;;5067488;28;20217;-70
2021/06/16 10:22:17;;;;;;;12.25;7.03;;;26.60;99.90;;;;;;5052714;28;20227;-70
2021/06/16 10:24:44;;;;;;;10.48;7.47;;;26.40;99.90;;;;;;5053285;28;20203;-70
2021/06/16 10:27:16;;;;;;;10.23;6.75;;;26.30;99.90;;;;;;5062454;28;20305;-71
2021/06/16 10:29:48;;;;;;;11.45;7.10;;;26.40;99.90;;;;;;5068384;28;20217;-69
2021/06/16 10:32:15;;;;;;;9.57;7.35;;;26.40;99.90;;;;;;5067073;28;20220;-70
2021/06/16 10:34:59;;;;;;;10.60;7.57;;;26.70;99.90;;;;;;5066568;28;20532;-70
2021/06/16 10:37:32;;;;;;;11.95;7.60;;;26.60;99.90;;;;;;5053312;28;20482;-70
2021/06/16 10:40:28;;;;;;;11.77;7.63;;;26.90;99.90;;;;;;5063551;28;20210;-70
2021/06/16 10:43:28;;;;;;;9.32;7.60;;;26.90;99.90;;;;;;5052371;28;20292;-70
2021/06/16 10:46:01;;;;;;;11.90;7.60;;;27.10;99.90;;;;;;5060548;28;20661;-70
2021/06/16 10:48:51;;;;;;;10.32;7.82;;;26.90;99.90;;;;;;5065457;28;20632;-70
2021/06/16 10:51:33;;;;;;;10.98;6.97;;;26.80;99.90;;;;;;5066141;28;20562;-70
2021/06/16 10:54:34;;;;;;;10.77;7.10;;;27.10;99.90;;;;;;5061576;28;20297;-70
2021/06/16 10:57:10;;;;;;;12.05;7.32;;;27.80;99.90;;;;;;5053175;28;20213;-70
2021/06/16 11:00:08;;;;;;;9.68;7.55;;;27.70;99.90;;;;;;5068050;28;20213;-71
2021/06/16 11:03:05;;;;;;;10.25;7.25;;;27.60;99.90;;;;;;5054317;28;20550;-69
2021/06/16 11:05:47;;;;;;;11.35;7.55;;;27.60;99.90;;;;;;5058778;28;20206;-70
2021/06/16 11:08:53;;;;;;;10.65;8.15;;;27.60;99.90;;;;;;5059874;28;20313;-72
2021/06/16 11:11:20;;;;;;;10.80;7.15;;;27.60;99.90;;;;;;5055625;28;20209;-71
2021/06/16 11:13:48;;;;;;;12.13;7.70;;;27.90;99.90;;;;;;5052322;28;20699;-70
2021/06/16 11:16:52;;;;;;;10.65;7.57;;;27.50;99.90;;;;;;5053946;28;20506;-70
2021/06/16 11:19:25;;;;;;;10.60;7.63;;;27.80;99.90;;;;;;5055254;28;20689;-71
2021/06/16 11:21:54;;;;;;;9.93;7.38;;;27.90;99.90;;;;;;5061415;28;20206;-70
2021/06/16 11:24:21;;;;;;;9.13;7.53;;;28.00;99.90;;;;;;5062699;28;20233;-70
2021/06/16 11:26:50;;;;;;;9.23;7.18;;;28.00;99.90;;;;;;5061987;28;20676;-70
2021/06/16 11:29:54;;;;;;;8.43;7.40;;;27.50;99.90;;;;;;5058239;28;20206;-70
2021/06/16 11:32:21;;;;;;;9.93;7.70;;;27.70;99.90;;;;;;5057450;28;20210;-71
2021/06/16 11:34:54;;;;;;;11.90;7.43;;;27.70;99.90;;;;;;5057582;28;20210;-71
2021/06/16 11:37:58;;;;;;;9.98;7.35;;;28.30;99.90;;;;;;5060474;28;20241;-70
2021/06/16 11:40:27;;;;;;;10.25;7.22;;;28.20;99.90;;;;;;5057977;28;20514;-70
2021/06/16 11:42:54;;;;;;;9.77;7.32;;;28.10;99.90;;;;;;5063873;28;20229;-70
2021/06/16 11:45:21;;;;;;;9.50;7.70;;;28.30;99.90;;;;;;5067728;28;20202;-71
2021/06/16 11:47:53;;;;;;;8.55;7.15;;;29.30;99.90;;;;;;5062783;28;20199;-69
2021/06/16 11:50:29;;;;;;;8.90;7.50;;;29.40;99.90;;;;;;5058971;28;20256;-71
2021/06/16 11:53:00;;;;;;;10.13;6.80;;;29.20;99.90;;;;;;5065738;28;20220;-70
2021/06/16 11:55:41;;;;;;;10.27;7.18;;;29.20;99.90;;;;;;5065906;28;20206;-70
2021/06/16 11:58:21;;;;;;;7.47;6.60;;;28.40;99.90;;;;;;5064279;28;20289;-71
2021/06/16 12:00:50;;;;;;;8.60;7.28;;;28.10;99.90;;;;;;5058903;28;20647;-70
2021/06/16 12:03:17;;;;;;;7.20;6.50;;;28.80;99.90;;;;;;5058803;28;20230;-70
2021/06/16 12:05:46;;;;;;;9.35;7.28;;;29.60;99.90;;;;;;5057453;28;20935;-70
2021/06/16 12:08:22;;;;;;;9.32;6.70;;;29.40;99.90;;;;;;5057684;28;20199;-68
2021/06/16 12:10:49;;;;;;;9.55;6.80;;;29.00;99.90;;;;;;5054939;28;20206;-67
2021/06/16 12:13:16;;;;;;;8.68;6.93;;;28.60;99.90;;;;;;5053977;28;20238;-67
2021/06/16 12:15:44;;;;;;;7.95;6.85;;;28.50;99.90;;;;;;5049076;28;20681;-67
2021/06/16 12:18:12;;;;;;;9.52;6.53;;;28.40;99.90;;;;;;5050291;28;20210;-69
2021/06/16 12:20:41;;;;;;;10.70;7.28;;;28.50;99.90;;;;;;5053632;28;20474;-69
2021/06/16 12:23:24;;;;;;;9.00;6.88;;;28.60;99.90;;;;;;5052912;28;20235;-69
2021/06/16 12:25:52;;;;;;;9.63;7.43;;;28.50;99.90;;;;;;5054413;28;20271;-69
2021/06/16 12:28:19;;;;;;;11.05;6.90;;;28.60;99.90;;;;;;5056907;28;20728;-69
2021/06/16 12:30:46;;;;;;;11.18;7.68;;;28.80;99.90;;;;;;5055350;28;20280;-67
2021/06/16 12:33:18;;;;;;;11.68;7.65;;;28.30;99.90;;;;;;5050537;28;20293;-70
2021/06/16 12:35:56;;;;;;;9.50;7.63;;;28.60;99.90;;;;;;5052193;28;20210;-68
2021/06/16 12:38:42;;;;;;;10.70;7.65;;;29.60;99.90;;;;;;5056374;28;20503;-68
2021/06/16 12:41:27;;;;;;;9.63;7.63;;;28.90;99.90;;;;;;5060583;28;20222;-67
2021/06/16 12:44:10;;;;;;;9.05;7.22;;;28.50;99.90;;;;;;5050934;28;20316;-67
2021/06/16 12:46:50;;;;;;;9.68;7.78;;;29.10;99.90;;;;;;5058011;28;20213;-67
2021/06/16 12:49:18;;;;;;;9.45;7.55;;;29.00;99.90;;;;;;5053202;28;20208;-68
2021/06/16 12:51:49;;;;;;;12.20;8.02;;;28.70;99.90;;;;;;5058676;28;20263;-67
2021/06/16 12:54:29;;;;;;;11.55;8.18;;;28.50;99.90;;;;;;5052775;28;20622;-67
2021/06/16 12:57:11;;;;;;;9.00;8.00;;;28.60;99.90;;;;;;5048726;28;20250;-67
2021/06/16 12:59:41;;;;;;;11.57;8.65;;;28.70;99.90;;;;;;5050471;28;20215;-70